sensor_id;sensor_type;location;lat;lon;timestamp;temperature;humidity
23405;DHT22;11875;49.356;2.718;2023-10-19T00:02:05;16.60;99.90
23405;DHT22;11875;49.356;2.718;2023-10-19T00:04:31;16.60;99.90
23405;DHT22;11875;49.356;2.718;2023-10-19T00:07:00;16.60;99.90
23405;DHT22;11875;49.356;2.718;2023-10-19T00:09:26;16.60;99.90
23405;DHT22;11875;49.356;2.718;2023-10-19T00:11:57;16.60;99.90
23405;DHT22;11875;49.356;2.718;2023-10-19T00:14:23;16.50;99.90
23405;DHT22;11875;49.356;2.718;2023-10-19T00:16:51;16.50;99.90
23405;DHT22;11875;49.356;2.718;2023-10-19T00:19:25;16.50;99.90
23405;DHT22;11875;49.356;2.718;2023-10-19T00:21:53;16.40;99.90
23405;DHT22;11875;49.356;2.718;2023-10-19T00:24:28;16.30;99.90
23405;DHT22;11875;49.356;2.718;2023-10-19T00:26:56;16.20;99.90
23405;DHT22;11875;49.356;2.718;2023-10-19T00:29:22;16.20;99.90
23405;DHT22;11875;49.356;2.718;2023-10-19T00:32:01;16.20;99.90
23405;DHT22;11875;49.356;2.718;2023-10-19T00:34:28;16.20;99.90
23405;DHT22;11875;49.356;2.718;2023-10-19T00:36:56;16.30;99.90
23405;DHT22;11875;49.356;2.718;2023-10-19T00:39:22;16.40;99.90
23405;DHT22;11875;49.356;2.718;2023-10-19T00:41:49;16.40;99.90
23405;DHT22;11875;49.356;2.718;2023-10-19T00:44:16;16.50;99.90
23405;DHT22;11875;49.356;2.718;2023-10-19T00:46:50;16.50;99.90
23405;DHT22;11875;49.356;2.718;2023-10-19T00:49:36;16.40;99.90
23405;DHT22;11875;49.356;2.718;2023-10-19T00:52:03;16.40;99.90
23405;DHT22;11875;49.356;2.718;2023-10-19T00:54:39;16.40;99.90
23405;DHT22;11875;49.356;2.718;2023-10-19T00:57:08;16.40;99.90
23405;DHT22;11875;49.356;2.718;2023-10-19T00:59:40;16.30;99.90
23405;DHT22;11875;49.356;2.718;2023-10-19T01:02:20;16.30;99.90
23405;DHT22;11875;49.356;2.718;2023-10-19T01:04:51;16.40;99.90
23405;DHT22;11875;49.356;2.718;2023-10-19T01:07:25;16.40;99.90
23405;DHT22;11875;49.356;2.718;2023-10-19T01:10:01;16.40;99.90
23405;DHT22;11875;49.356;2.718;2023-10-19T01:12:31;16.40;99.90
23405;DHT22;11875;49.356;2.718;2023-10-19T01:17:50;16.40;99.90
23405;DHT22;11875;49.356;2.718;2023-10-19T01:20:21;16.40;99.90
23405;DHT22;11875;49.356;2.718;2023-10-19T01:22:58;16.40;99.90
23405;DHT22;11875;49.356;2.718;2023-10-19T01:25:45;16.30;99.90
23405;DHT22;11875;49.356;2.718;2023-10-19T01:28:27;16.20;99.90
23405;DHT22;11875;49.356;2.718;2023-10-19T01:31:16;16.20;99.90
23405;DHT22;11875;49.356;2.718;2023-10-19T01:33:47;16.20;99.90
23405;DHT22;11875;49.356;2.718;2023-10-19T01:36:13;16.20;99.90
23405;DHT22;11875;49.356;2.718;2023-10-19T01:38:48;16.20;99.90
23405;DHT22;11875;49.356;2.718;2023-10-19T01:41:14;16.30;99.90
23405;DHT22;11875;49.356;2.718;2023-10-19T01:43:47;16.20;99.90
23405;DHT22;11875;49.356;2.718;2023-10-19T01:46:15;16.30;99.90
23405;DHT22;11875;49.356;2.718;2023-10-19T01:48:52;16.30;99.90
23405;DHT22;11875;49.356;2.718;2023-10-19T01:51:23;16.40;99.90
23405;DHT22;11875;49.356;2.718;2023-10-19T01:53:50;16.20;99.90
23405;DHT22;11875;49.356;2.718;2023-10-19T01:56:17;16.20;99.90
23405;DHT22;11875;49.356;2.718;2023-10-19T01:58:47;16.30;99.90
23405;DHT22;11875;49.356;2.718;2023-10-19T02:01:16;16.40;99.90
23405;DHT22;11875;49.356;2.718;2023-10-19T02:03:52;16.30;99.90
23405;DHT22;11875;49.356;2.718;2023-10-19T02:06:21;16.30;99.90
23405;DHT22;11875;49.356;2.718;2023-10-19T02:11:15;16.20;99.90
23405;DHT22;11875;49.356;2.718;2023-10-19T02:13:47;16.20;99.90
23405;DHT22;11875;49.356;2.718;2023-10-19T02:16:14;16.10;99.90
23405;DHT22;11875;49.356;2.718;2023-10-19T02:18:44;16.00;99.90
23405;DHT22;11875;49.356;2.718;2023-10-19T02:21:10;16.00;99.90
23405;DHT22;11875;49.356;2.718;2023-10-19T02:23:39;16.20;99.90
23405;DHT22;11875;49.356;2.718;2023-10-19T02:26:08;16.20;99.90
23405;DHT22;11875;49.356;2.718;2023-10-19T02:28:33;16.20;99.90
23405;DHT22;11875;49.356;2.718;2023-10-19T02:31:03;16.20;99.90
23405;DHT22;11875;49.356;2.718;2023-10-19T02:33:44;16.80;99.90
23405;DHT22;11875;49.356;2.718;2023-10-19T02:36:17;16.20;99.90
23405;DHT22;11875;49.356;2.718;2023-10-19T02:38:45;16.30;99.90
23405;DHT22;11875;49.356;2.718;2023-10-19T02:41:17;16.30;99.90
23405;DHT22;11875;49.356;2.718;2023-10-19T02:43:45;16.20;99.90
23405;DHT22;11875;49.356;2.718;2023-10-19T02:46:26;16.20;99.90
23405;DHT22;11875;49.356;2.718;2023-10-19T02:48:52;16.30;99.90
23405;DHT22;11875;49.356;2.718;2023-10-19T02:51:17;16.20;99.90
23405;DHT22;11875;49.356;2.718;2023-10-19T02:53:44;16.20;99.90
23405;DHT22;11875;49.356;2.718;2023-10-19T02:56:15;16.30;99.90
23405;DHT22;11875;49.356;2.718;2023-10-19T02:58:45;16.30;99.90
23405;DHT22;11875;49.356;2.718;2023-10-19T03:01:16;16.30;99.90
23405;DHT22;11875;49.356;2.718;2023-10-19T03:03:50;16.30;99.90
23405;DHT22;11875;49.356;2.718;2023-10-19T03:06:21;16.20;99.90
23405;DHT22;11875;49.356;2.718;2023-10-19T03:08:48;16.30;99.90
23405;DHT22;11875;49.356;2.718;2023-10-19T03:11:17;16.40;99.90
23405;DHT22;11875;49.356;2.718;2023-10-19T03:13:43;16.50;99.90
23405;DHT22;11875;49.356;2.718;2023-10-19T03:16:08;16.60;99.90
23405;DHT22;11875;49.356;2.718;2023-10-19T03:18:35;16.60;99.90
23405;DHT22;11875;49.356;2.718;2023-10-19T03:21:02;16.60;99.90
23405;DHT22;11875;49.356;2.718;2023-10-19T03:23:28;16.60;99.90
23405;DHT22;11875;49.356;2.718;2023-10-19T03:25:56;16.60;99.90
23405;DHT22;11875;49.356;2.718;2023-10-19T03:28:42;16.60;99.90
23405;DHT22;11875;49.356;2.718;2023-10-19T03:31:09;16.60;99.90
23405;DHT22;11875;49.356;2.718;2023-10-19T03:33:38;16.60;99.90
23405;DHT22;11875;49.356;2.718;2023-10-19T03:36:06;16.70;99.90
23405;DHT22;11875;49.356;2.718;2023-10-19T03:38:38;16.70;99.90
23405;DHT22;11875;49.356;2.718;2023-10-19T03:41:06;16.60;99.90
23405;DHT22;11875;49.356;2.718;2023-10-19T03:43:34;16.60;99.90
23405;DHT22;11875;49.356;2.718;2023-10-19T03:46:02;16.70;99.90
23405;DHT22;11875;49.356;2.718;2023-10-19T03:48:32;16.80;99.90
23405;DHT22;11875;49.356;2.718;2023-10-19T03:51:03;16.80;99.90
23405;DHT22;11875;49.356;2.718;2023-10-19T03:53:30;16.60;99.90
23405;DHT22;11875;49.356;2.718;2023-10-19T03:55:59;16.60;99.90
23405;DHT22;11875;49.356;2.718;2023-10-19T03:58:25;16.60;99.90
23405;DHT22;11875;49.356;2.718;2023-10-19T04:00:54;16.60;99.90
23405;DHT22;11875;49.356;2.718;2023-10-19T04:03:26;16.60;99.90
23405;DHT22;11875;49.356;2.718;2023-10-19T04:05:55;16.40;99.90
23405;DHT22;11875;49.356;2.718;2023-10-19T04:08:21;16.40;99.90
23405;DHT22;11875;49.356;2.718;2023-10-19T04:10:51;16.40;99.90
23405;DHT22;11875;49.356;2.718;2023-10-19T04:13:35;16.40;99.90
23405;DHT22;11875;49.356;2.718;2023-10-19T04:16:04;16.40;99.90
23405;DHT22;11875;49.356;2.718;2023-10-19T04:18:34;16.50;99.90
23405;DHT22;11875;49.356;2.718;2023-10-19T04:21:03;16.50;99.90
23405;DHT22;11875;49.356;2.718;2023-10-19T04:23:29;16.50;99.90
23405;DHT22;11875;49.356;2.718;2023-10-19T04:26:00;16.40;99.90
23405;DHT22;11875;49.356;2.718;2023-10-19T04:28:31;16.40;99.90
23405;DHT22;11875;49.356;2.718;2023-10-19T04:30:57;16.40;99.90
23405;DHT22;11875;49.356;2.718;2023-10-19T04:33:30;16.40;99.90
23405;DHT22;11875;49.356;2.718;2023-10-19T04:35:57;16.40;99.90
23405;DHT22;11875;49.356;2.718;2023-10-19T04:38:26;16.40;99.90
23405;DHT22;11875;49.356;2.718;2023-10-19T04:40:51;16.40;99.90
23405;DHT22;11875;49.356;2.718;2023-10-19T04:43:17;16.40;99.90
23405;DHT22;11875;49.356;2.718;2023-10-19T04:45:43;16.50;99.90
23405;DHT22;11875;49.356;2.718;2023-10-19T04:48:10;16.40;99.90
23405;DHT22;11875;49.356;2.718;2023-10-19T04:50:36;16.50;99.90
23405;DHT22;11875;49.356;2.718;2023-10-19T04:53:02;16.40;99.90
23405;DHT22;11875;49.356;2.718;2023-10-19T04:55:29;16.30;99.90
23405;DHT22;11875;49.356;2.718;2023-10-19T04:57:55;16.20;99.90
23405;DHT22;11875;49.356;2.718;2023-10-19T05:00:22;16.20;99.90
23405;DHT22;11875;49.356;2.718;2023-10-19T05:02:50;16.30;99.90
23405;DHT22;11875;49.356;2.718;2023-10-19T05:05:17;16.90;99.90
23405;DHT22;11875;49.356;2.718;2023-10-19T05:07:43;16.20;99.90
23405;DHT22;11875;49.356;2.718;2023-10-19T05:10:09;16.20;99.90
23405;DHT22;11875;49.356;2.718;2023-10-19T05:12:36;16.20;99.90
23405;DHT22;11875;49.356;2.718;2023-10-19T05:15:02;16.30;99.90
23405;DHT22;11875;49.356;2.718;2023-10-19T05:17:28;16.50;99.90
23405;DHT22;11875;49.356;2.718;2023-10-19T05:19:53;16.20;99.90
23405;DHT22;11875;49.356;2.718;2023-10-19T05:22:19;16.10;99.90
23405;DHT22;11875;49.356;2.718;2023-10-19T05:24:44;16.10;99.90
23405;DHT22;11875;49.356;2.718;2023-10-19T05:27:12;16.20;99.90
23405;DHT22;11875;49.356;2.718;2023-10-19T05:29:37;16.30;99.90
23405;DHT22;11875;49.356;2.718;2023-10-19T05:32:05;16.30;99.90
23405;DHT22;11875;49.356;2.718;2023-10-19T05:34:31;16.30;99.90
23405;DHT22;11875;49.356;2.718;2023-10-19T05:37:00;16.40;99.90
23405;DHT22;11875;49.356;2.718;2023-10-19T05:39:28;16.40;99.90
23405;DHT22;11875;49.356;2.718;2023-10-19T05:41:54;16.40;99.90
23405;DHT22;11875;49.356;2.718;2023-10-19T05:44:20;16.30;99.90
23405;DHT22;11875;49.356;2.718;2023-10-19T05:46:46;16.30;99.90
23405;DHT22;11875;49.356;2.718;2023-10-19T05:49:12;16.40;99.90
23405;DHT22;11875;49.356;2.718;2023-10-19T05:51:38;16.30;99.90
23405;DHT22;11875;49.356;2.718;2023-10-19T05:54:04;16.40;99.90
23405;DHT22;11875;49.356;2.718;2023-10-19T05:56:31;16.50;99.90
23405;DHT22;11875;49.356;2.718;2023-10-19T05:58:59;16.70;99.90
23405;DHT22;11875;49.356;2.718;2023-10-19T06:01:26;16.80;99.90
23405;DHT22;11875;49.356;2.718;2023-10-19T06:03:52;16.70;99.90
23405;DHT22;11875;49.356;2.718;2023-10-19T06:06:19;16.70;99.90
23405;DHT22;11875;49.356;2.718;2023-10-19T06:08:45;16.80;99.90
23405;DHT22;11875;49.356;2.718;2023-10-19T06:11:10;16.90;99.90
23405;DHT22;11875;49.356;2.718;2023-10-19T06:13:36;17.00;99.90
23405;DHT22;11875;49.356;2.718;2023-10-19T06:16:02;17.00;99.90
23405;DHT22;11875;49.356;2.718;2023-10-19T06:18:28;17.10;99.90
23405;DHT22;11875;49.356;2.718;2023-10-19T06:20:55;17.10;99.90
23405;DHT22;11875;49.356;2.718;2023-10-19T06:23:21;17.10;99.90
23405;DHT22;11875;49.356;2.718;2023-10-19T06:25:46;17.10;99.90
23405;DHT22;11875;49.356;2.718;2023-10-19T06:28:12;17.10;99.90
23405;DHT22;11875;49.356;2.718;2023-10-19T06:30:38;17.20;99.90
23405;DHT22;11875;49.356;2.718;2023-10-19T06:33:05;17.20;99.90
23405;DHT22;11875;49.356;2.718;2023-10-19T06:35:32;17.00;99.90
23405;DHT22;11875;49.356;2.718;2023-10-19T06:37:59;17.00;99.90
23405;DHT22;11875;49.356;2.718;2023-10-19T06:40:25;16.90;99.90
23405;DHT22;11875;49.356;2.718;2023-10-19T06:42:52;16.70;99.90
23405;DHT22;11875;49.356;2.718;2023-10-19T06:45:21;16.60;99.90
23405;DHT22;11875;49.356;2.718;2023-10-19T06:47:48;16.50;99.90
23405;DHT22;11875;49.356;2.718;2023-10-19T06:50:17;16.60;99.90
23405;DHT22;11875;49.356;2.718;2023-10-19T06:52:44;16.40;99.90
23405;DHT22;11875;49.356;2.718;2023-10-19T06:55:10;16.50;99.90
23405;DHT22;11875;49.356;2.718;2023-10-19T06:57:42;16.60;99.90
23405;DHT22;11875;49.356;2.718;2023-10-19T07:00:11;16.60;99.90
23405;DHT22;11875;49.356;2.718;2023-10-19T07:02:43;16.70;99.90
23405;DHT22;11875;49.356;2.718;2023-10-19T07:05:10;16.80;99.90
23405;DHT22;11875;49.356;2.718;2023-10-19T07:07:41;16.80;99.90
23405;DHT22;11875;49.356;2.718;2023-10-19T07:10:08;17.00;99.90
23405;DHT22;11875;49.356;2.718;2023-10-19T07:12:36;16.90;99.90
23405;DHT22;11875;49.356;2.718;2023-10-19T07:15:03;16.70;99.90
23405;DHT22;11875;49.356;2.718;2023-10-19T07:17:29;16.70;99.90
23405;DHT22;11875;49.356;2.718;2023-10-19T07:19:54;16.60;99.90
23405;DHT22;11875;49.356;2.718;2023-10-19T07:22:20;16.60;99.90
23405;DHT22;11875;49.356;2.718;2023-10-19T07:24:48;16.70;99.90
23405;DHT22;11875;49.356;2.718;2023-10-19T07:27:14;16.90;99.90
23405;DHT22;11875;49.356;2.718;2023-10-19T07:29:44;16.90;99.90
23405;DHT22;11875;49.356;2.718;2023-10-19T07:32:10;16.90;99.90
23405;DHT22;11875;49.356;2.718;2023-10-19T07:34:39;17.00;99.90
23405;DHT22;11875;49.356;2.718;2023-10-19T07:37:05;17.20;99.90
23405;DHT22;11875;49.356;2.718;2023-10-19T07:39:32;17.20;99.90
23405;DHT22;11875;49.356;2.718;2023-10-19T07:42:00;17.30;99.90
23405;DHT22;11875;49.356;2.718;2023-10-19T07:44:26;17.30;99.90
23405;DHT22;11875;49.356;2.718;2023-10-19T07:46:55;17.20;99.90
23405;DHT22;11875;49.356;2.718;2023-10-19T07:49:21;17.10;99.90
23405;DHT22;11875;49.356;2.718;2023-10-19T07:51:47;17.20;99.90
23405;DHT22;11875;49.356;2.718;2023-10-19T07:54:13;17.30;99.90
23405;DHT22;11875;49.356;2.718;2023-10-19T07:56:39;17.30;99.90
23405;DHT22;11875;49.356;2.718;2023-10-19T07:59:05;17.20;99.90
23405;DHT22;11875;49.356;2.718;2023-10-19T08:01:32;17.10;99.90
23405;DHT22;11875;49.356;2.718;2023-10-19T08:03:58;17.00;99.90
23405;DHT22;11875;49.356;2.718;2023-10-19T08:06:23;17.00;99.90
23405;DHT22;11875;49.356;2.718;2023-10-19T08:08:49;17.00;99.90
23405;DHT22;11875;49.356;2.718;2023-10-19T08:11:15;16.80;99.90
23405;DHT22;11875;49.356;2.718;2023-10-19T08:13:42;16.70;99.90
23405;DHT22;11875;49.356;2.718;2023-10-19T08:16:08;16.70;99.90
23405;DHT22;11875;49.356;2.718;2023-10-19T08:18:34;16.60;99.90
23405;DHT22;11875;49.356;2.718;2023-10-19T08:21:01;16.50;99.90
23405;DHT22;11875;49.356;2.718;2023-10-19T08:23:27;16.50;99.90
23405;DHT22;11875;49.356;2.718;2023-10-19T08:25:53;16.50;99.90
23405;DHT22;11875;49.356;2.718;2023-10-19T08:28:20;16.50;99.90
23405;DHT22;11875;49.356;2.718;2023-10-19T08:30:47;16.40;99.90
23405;DHT22;11875;49.356;2.718;2023-10-19T08:33:26;16.50;99.90
23405;DHT22;11875;49.356;2.718;2023-10-19T08:35:55;16.50;99.90
23405;DHT22;11875;49.356;2.718;2023-10-19T08:38:22;16.60;99.90
23405;DHT22;11875;49.356;2.718;2023-10-19T08:40:49;16.60;99.90
23405;DHT22;11875;49.356;2.718;2023-10-19T08:43:17;16.70;99.90
23405;DHT22;11875;49.356;2.718;2023-10-19T08:45:44;16.90;99.90
23405;DHT22;11875;49.356;2.718;2023-10-19T08:48:10;17.10;99.90
23405;DHT22;11875;49.356;2.718;2023-10-19T08:50:37;17.10;99.90
23405;DHT22;11875;49.356;2.718;2023-10-19T08:53:04;17.00;99.90
23405;DHT22;11875;49.356;2.718;2023-10-19T08:55:32;17.10;99.90
23405;DHT22;11875;49.356;2.718;2023-10-19T08:58:00;17.20;99.90
23405;DHT22;11875;49.356;2.718;2023-10-19T09:00:26;17.30;99.90
23405;DHT22;11875;49.356;2.718;2023-10-19T09:02:53;17.30;99.90
23405;DHT22;11875;49.356;2.718;2023-10-19T09:05:20;17.30;99.90
23405;DHT22;11875;49.356;2.718;2023-10-19T09:07:54;17.30;99.90
23405;DHT22;11875;49.356;2.718;2023-10-19T09:10:26;17.20;99.90
23405;DHT22;11875;49.356;2.718;2023-10-19T09:13:02;17.00;99.90
23405;DHT22;11875;49.356;2.718;2023-10-19T09:15:28;17.30;99.90
23405;DHT22;11875;49.356;2.718;2023-10-19T09:20:43;17.20;99.90
23405;DHT22;11875;49.356;2.718;2023-10-19T09:23:18;17.30;99.90
23405;DHT22;11875;49.356;2.718;2023-10-19T09:25:44;17.30;99.90
23405;DHT22;11875;49.356;2.718;2023-10-19T09:28:10;17.40;99.90
23405;DHT22;11875;49.356;2.718;2023-10-19T09:30:39;17.50;99.90
23405;DHT22;11875;49.356;2.718;2023-10-19T09:33:05;17.60;99.90
23405;DHT22;11875;49.356;2.718;2023-10-19T09:35:34;17.70;99.90
23405;DHT22;11875;49.356;2.718;2023-10-19T09:38:00;17.70;99.90
23405;DHT22;11875;49.356;2.718;2023-10-19T09:40:26;17.70;99.90
23405;DHT22;11875;49.356;2.718;2023-10-19T09:42:56;17.70;99.90
23405;DHT22;11875;49.356;2.718;2023-10-19T09:45:27;17.90;99.90
23405;DHT22;11875;49.356;2.718;2023-10-19T09:47:55;17.80;99.90
23405;DHT22;11875;49.356;2.718;2023-10-19T09:50:22;17.80;99.90
23405;DHT22;11875;49.356;2.718;2023-10-19T09:52:48;17.90;99.90
23405;DHT22;11875;49.356;2.718;2023-10-19T09:55:29;18.00;99.90
23405;DHT22;11875;49.356;2.718;2023-10-19T09:58:15;18.00;99.90
23405;DHT22;11875;49.356;2.718;2023-10-19T10:00:48;18.10;99.90
23405;DHT22;11875;49.356;2.718;2023-10-19T10:03:55;18.20;99.90
23405;DHT22;11875;49.356;2.718;2023-10-19T10:09:20;18.70;99.90
23405;DHT22;11875;49.356;2.718;2023-10-19T10:11:52;18.90;99.90
23405;DHT22;11875;49.356;2.718;2023-10-19T10:14:26;19.00;99.90
23405;DHT22;11875;49.356;2.718;2023-10-19T10:17:04;18.90;99.90
23405;DHT22;11875;49.356;2.718;2023-10-19T10:19:30;17.90;99.90
23405;DHT22;11875;49.356;2.718;2023-10-19T10:22:11;18.90;99.90
23405;DHT22;11875;49.356;2.718;2023-10-19T10:24:43;19.00;99.90
23405;DHT22;11875;49.356;2.718;2023-10-19T10:27:09;19.20;99.90
23405;DHT22;11875;49.356;2.718;2023-10-19T10:29:54;19.30;99.90
23405;DHT22;11875;49.356;2.718;2023-10-19T10:33:00;19.50;99.90
23405;DHT22;11875;49.356;2.718;2023-10-19T10:38:07;19.30;99.90
23405;DHT22;11875;49.356;2.718;2023-10-19T10:40:47;19.50;99.90
23405;DHT22;11875;49.356;2.718;2023-10-19T10:43:17;19.60;99.90
23405;DHT22;11875;49.356;2.718;2023-10-19T10:45:43;19.60;99.90
23405;DHT22;11875;49.356;2.718;2023-10-19T10:48:13;19.70;99.90
23405;DHT22;11875;49.356;2.718;2023-10-19T10:50:39;19.70;99.90
23405;DHT22;11875;49.356;2.718;2023-10-19T10:53:07;19.70;99.90
23405;DHT22;11875;49.356;2.718;2023-10-19T10:55:33;19.80;99.90
23405;DHT22;11875;49.356;2.718;2023-10-19T10:57:59;20.00;99.90
23405;DHT22;11875;49.356;2.718;2023-10-19T11:00:25;20.10;99.90
23405;DHT22;11875;49.356;2.718;2023-10-19T11:03:06;20.30;99.90
23405;DHT22;11875;49.356;2.718;2023-10-19T11:05:35;20.50;99.90
23405;DHT22;11875;49.356;2.718;2023-10-19T11:08:09;20.40;99.90
23405;DHT22;11875;49.356;2.718;2023-10-19T11:10:35;20.30;99.90
23405;DHT22;11875;49.356;2.718;2023-10-19T11:13:06;20.20;99.90
23405;DHT22;11875;49.356;2.718;2023-10-19T11:15:35;20.20;99.90
23405;DHT22;11875;49.356;2.718;2023-10-19T11:18:02;20.30;99.90
23405;DHT22;11875;49.356;2.718;2023-10-19T11:20:28;20.30;99.90
23405;DHT22;11875;49.356;2.718;2023-10-19T11:22:55;20.40;99.90
23405;DHT22;11875;49.356;2.718;2023-10-19T11:25:26;20.40;99.90
23405;DHT22;11875;49.356;2.718;2023-10-19T11:27:56;20.50;99.90
23405;DHT22;11875;49.356;2.718;2023-10-19T11:30:29;20.50;99.90
23405;DHT22;11875;49.356;2.718;2023-10-19T11:32:56;20.70;99.90
23405;DHT22;11875;49.356;2.718;2023-10-19T11:35:26;20.60;99.90
23405;DHT22;11875;49.356;2.718;2023-10-19T11:37:54;20.60;99.90
23405;DHT22;11875;49.356;2.718;2023-10-19T11:40:21;20.70;99.90
23405;DHT22;11875;49.356;2.718;2023-10-19T11:42:48;20.80;99.90
23405;DHT22;11875;49.356;2.718;2023-10-19T11:45:15;20.90;99.90
23405;DHT22;11875;49.356;2.718;2023-10-19T11:47:45;20.80;99.90
23405;DHT22;11875;49.356;2.718;2023-10-19T11:50:13;20.90;99.90
23405;DHT22;11875;49.356;2.718;2023-10-19T11:52:43;21.00;99.90
23405;DHT22;11875;49.356;2.718;2023-10-19T11:55:11;21.00;99.90
23405;DHT22;11875;49.356;2.718;2023-10-19T11:57:39;21.10;99.90
23405;DHT22;11875;49.356;2.718;2023-10-19T12:00:06;21.10;99.90
23405;DHT22;11875;49.356;2.718;2023-10-19T12:02:36;21.10;99.90
23405;DHT22;11875;49.356;2.718;2023-10-19T12:05:05;21.10;99.90
23405;DHT22;11875;49.356;2.718;2023-10-19T12:07:36;20.90;99.90
23405;DHT22;11875;49.356;2.718;2023-10-19T12:10:02;21.00;99.90
23405;DHT22;11875;49.356;2.718;2023-10-19T12:12:28;21.00;99.90
23405;DHT22;11875;49.356;2.718;2023-10-19T12:14:54;21.10;99.90
23405;DHT22;11875;49.356;2.718;2023-10-19T12:17:20;21.20;99.90
23405;DHT22;11875;49.356;2.718;2023-10-19T12:19:47;21.20;99.90
23405;DHT22;11875;49.356;2.718;2023-10-19T12:22:13;21.30;99.90
23405;DHT22;11875;49.356;2.718;2023-10-19T12:24:38;21.30;99.90
23405;DHT22;11875;49.356;2.718;2023-10-19T12:27:04;21.30;99.90
23405;DHT22;11875;49.356;2.718;2023-10-19T12:29:30;21.40;99.90
23405;DHT22;11875;49.356;2.718;2023-10-19T12:31:57;21.60;99.90
23405;DHT22;11875;49.356;2.718;2023-10-19T12:34:22;21.70;99.90
23405;DHT22;11875;49.356;2.718;2023-10-19T12:36:48;21.90;99.90
23405;DHT22;11875;49.356;2.718;2023-10-19T12:39:15;22.00;99.90
23405;DHT22;11875;49.356;2.718;2023-10-19T12:42:01;22.00;99.90
23405;DHT22;11875;49.356;2.718;2023-10-19T12:44:26;21.90;99.90
23405;DHT22;11875;49.356;2.718;2023-10-19T12:46:54;21.80;99.90
23405;DHT22;11875;49.356;2.718;2023-10-19T12:49:20;21.70;99.90
23405;DHT22;11875;49.356;2.718;2023-10-19T12:51:51;21.50;99.90
23405;DHT22;11875;49.356;2.718;2023-10-19T12:54:17;21.50;99.90
23405;DHT22;11875;49.356;2.718;2023-10-19T12:56:43;21.40;99.90
23405;DHT22;11875;49.356;2.718;2023-10-19T12:59:09;21.40;99.90
23405;DHT22;11875;49.356;2.718;2023-10-19T13:01:35;21.50;99.90
23405;DHT22;11875;49.356;2.718;2023-10-19T13:04:01;21.50;99.90
23405;DHT22;11875;49.356;2.718;2023-10-19T13:06:30;21.70;99.90
23405;DHT22;11875;49.356;2.718;2023-10-19T13:08:57;21.90;99.90
23405;DHT22;11875;49.356;2.718;2023-10-19T13:11:23;22.10;99.90
23405;DHT22;11875;49.356;2.718;2023-10-19T13:13:48;22.10;99.90
23405;DHT22;11875;49.356;2.718;2023-10-19T13:16:15;22.00;99.90
23405;DHT22;11875;49.356;2.718;2023-10-19T13:18:41;22.20;99.90
23405;DHT22;11875;49.356;2.718;2023-10-19T13:21:07;22.20;99.90
23405;DHT22;11875;49.356;2.718;2023-10-19T13:23:37;22.30;99.90
23405;DHT22;11875;49.356;2.718;2023-10-19T13:26:02;22.40;99.90
23405;DHT22;11875;49.356;2.718;2023-10-19T13:28:40;22.30;99.90
23405;DHT22;11875;49.356;2.718;2023-10-19T13:31:07;22.40;99.90
23405;DHT22;11875;49.356;2.718;2023-10-19T13:33:34;22.30;99.90
23405;DHT22;11875;49.356;2.718;2023-10-19T13:36:00;22.30;99.90
23405;DHT22;11875;49.356;2.718;2023-10-19T13:38:26;22.20;99.90
23405;DHT22;11875;49.356;2.718;2023-10-19T13:40:51;22.10;99.90
23405;DHT22;11875;49.356;2.718;2023-10-19T13:43:19;22.50;99.90
23405;DHT22;11875;49.356;2.718;2023-10-19T13:45:46;22.60;99.90
23405;DHT22;11875;49.356;2.718;2023-10-19T13:48:13;22.60;99.90
23405;DHT22;11875;49.356;2.718;2023-10-19T13:50:44;22.60;99.90
23405;DHT22;11875;49.356;2.718;2023-10-19T13:53:11;22.50;99.90
23405;DHT22;11875;49.356;2.718;2023-10-19T13:55:36;22.40;99.90
23405;DHT22;11875;49.356;2.718;2023-10-19T13:58:02;22.30;99.90
23405;DHT22;11875;49.356;2.718;2023-10-19T14:00:28;22.70;99.90
23405;DHT22;11875;49.356;2.718;2023-10-19T14:03:01;22.60;99.90
23405;DHT22;11875;49.356;2.718;2023-10-19T14:05:36;22.70;99.90
23405;DHT22;11875;49.356;2.718;2023-10-19T14:08:03;22.70;99.90
23405;DHT22;11875;49.356;2.718;2023-10-19T14:10:29;23.10;99.90
23405;DHT22;11875;49.356;2.718;2023-10-19T14:12:56;22.50;99.90
23405;DHT22;11875;49.356;2.718;2023-10-19T14:15:22;22.40;99.90
23405;DHT22;11875;49.356;2.718;2023-10-19T14:17:48;22.40;99.90
23405;DHT22;11875;49.356;2.718;2023-10-19T14:20:15;22.50;99.90
23405;DHT22;11875;49.356;2.718;2023-10-19T14:22:45;22.40;99.90
23405;DHT22;11875;49.356;2.718;2023-10-19T14:25:12;22.20;99.90
23405;DHT22;11875;49.356;2.718;2023-10-19T14:27:41;22.20;99.90
23405;DHT22;11875;49.356;2.718;2023-10-19T14:30:12;22.10;99.90
23405;DHT22;11875;49.356;2.718;2023-10-19T14:32:42;22.00;99.90
23405;DHT22;11875;49.356;2.718;2023-10-19T14:35:09;22.10;99.90
23405;DHT22;11875;49.356;2.718;2023-10-19T14:37:39;22.10;99.90
23405;DHT22;11875;49.356;2.718;2023-10-19T14:40:10;22.00;99.90
23405;DHT22;11875;49.356;2.718;2023-10-19T14:42:40;22.00;99.90
23405;DHT22;11875;49.356;2.718;2023-10-19T14:45:09;22.00;99.90
23405;DHT22;11875;49.356;2.718;2023-10-19T14:47:38;21.90;99.90
23405;DHT22;11875;49.356;2.718;2023-10-19T14:50:11;21.80;99.90
23405;DHT22;11875;49.356;2.718;2023-10-19T14:52:37;21.70;99.90
23405;DHT22;11875;49.356;2.718;2023-10-19T14:55:04;21.70;99.90
23405;DHT22;11875;49.356;2.718;2023-10-19T14:57:32;21.80;99.90
23405;DHT22;11875;49.356;2.718;2023-10-19T14:59:58;21.80;99.90
23405;DHT22;11875;49.356;2.718;2023-10-19T15:02:34;21.80;99.90
23405;DHT22;11875;49.356;2.718;2023-10-19T15:05:01;21.80;99.90
23405;DHT22;11875;49.356;2.718;2023-10-19T15:07:26;21.80;99.90
23405;DHT22;11875;49.356;2.718;2023-10-19T15:09:53;21.60;99.90
23405;DHT22;11875;49.356;2.718;2023-10-19T15:12:18;21.60;99.90
23405;DHT22;11875;49.356;2.718;2023-10-19T15:14:44;21.60;99.90
23405;DHT22;11875;49.356;2.718;2023-10-19T15:17:10;21.60;99.90
23405;DHT22;11875;49.356;2.718;2023-10-19T15:19:36;21.50;99.90
23405;DHT22;11875;49.356;2.718;2023-10-19T15:22:02;21.40;99.90
23405;DHT22;11875;49.356;2.718;2023-10-19T15:24:27;21.40;99.90
23405;DHT22;11875;49.356;2.718;2023-10-19T15:26:53;21.20;99.90
23405;DHT22;11875;49.356;2.718;2023-10-19T15:29:18;21.20;99.90
23405;DHT22;11875;49.356;2.718;2023-10-19T15:31:44;21.20;99.90
23405;DHT22;11875;49.356;2.718;2023-10-19T15:34:10;21.30;99.90
23405;DHT22;11875;49.356;2.718;2023-10-19T15:36:35;21.30;99.90
23405;DHT22;11875;49.356;2.718;2023-10-19T15:39:02;21.50;99.90
23405;DHT22;11875;49.356;2.718;2023-10-19T15:41:27;21.40;99.90
23405;DHT22;11875;49.356;2.718;2023-10-19T15:43:53;21.40;99.90
23405;DHT22;11875;49.356;2.718;2023-10-19T15:46:19;21.40;99.90
23405;DHT22;11875;49.356;2.718;2023-10-19T15:48:48;21.50;99.90
23405;DHT22;11875;49.356;2.718;2023-10-19T15:51:14;21.50;99.90
23405;DHT22;11875;49.356;2.718;2023-10-19T15:53:39;21.40;99.90